In Rescue
 
Open Full Screen Window  High Contrast Mode
Wind Gusting 00 knots
17
May 28, 2020 2:00 PM PDT
Weather Information
Wind Direction
  250 °
Wind Speed
  17 kt (20 mph)
Wind Gust
  00 kt (0 mph)
Altimeter
29.88 in
Visibility
10 SM
Temperature
29° C
84° F
Dewpoint
11° C
52° F
Humidity
33%
1hr Rain Fall
00.00 in.
24hr Rain Fall
00.00 in.
Sky Condition
Clear
VFR

METAR KCVH 282100Z AUTO 25017KT 10SM CLR 29/11 A2988 RMK A01

FAA Disclaimer: The data displayed is for advisory purposes only and is not to be used for flight planning or operations.